sensor_id;sensor_type;location;lat;lon;timestamp;P1;durP1;ratioP1;P2;durP2;ratioP2
16531;SDS011;66872;63.142;14.482;2023-05-02T00:00:10;1.20;;;1.10;;
16531;SDS011;66872;63.142;14.482;2023-05-02T00:02:37;1.40;;;1.30;;
16531;SDS011;66872;63.142;14.482;2023-05-02T00:05:03;1.17;;;1.07;;
16531;SDS011;66872;63.142;14.482;2023-05-02T00:07:30;1.00;;;1.00;;
16531;SDS011;66872;63.142;14.482;2023-05-02T00:09:56;1.10;;;1.00;;
16531;SDS011;66872;63.142;14.482;2023-05-02T00:12:22;1.30;;;1.20;;
16531;SDS011;66872;63.142;14.482;2023-05-02T00:14:48;1.30;;;1.20;;
16531;SDS011;66872;63.142;14.482;2023-05-02T00:17:17;1.00;;;1.00;;
16531;SDS011;66872;63.142;14.482;2023-05-02T00:19:43;1.23;;;1.13;;
16531;SDS011;66872;63.142;14.482;2023-05-02T00:22:09;1.13;;;1.03;;
16531;SDS011;66872;63.142;14.482;2023-05-02T00:24:34;0.90;;;0.90;;
16531;SDS011;66872;63.142;14.482;2023-05-02T00:27:00;1.00;;;0.97;;
16531;SDS011;66872;63.142;14.482;2023-05-02T00:29:26;1.30;;;1.20;;
16531;SDS011;66872;63.142;14.482;2023-05-02T00:31:51;1.50;;;1.33;;
16531;SDS011;66872;63.142;14.482;2023-05-02T00:34:17;1.23;;;1.03;;
16531;SDS011;66872;63.142;14.482;2023-05-02T00:36:43;1.07;;;1.03;;
16531;SDS011;66872;63.142;14.482;2023-05-02T00:39:08;1.23;;;1.13;;
16531;SDS011;66872;63.142;14.482;2023-05-02T00:41:34;0.90;;;0.90;;
16531;SDS011;66872;63.142;14.482;2023-05-02T00:44:00;1.30;;;1.20;;
16531;SDS011;66872;63.142;14.482;2023-05-02T00:46:26;1.20;;;1.10;;
16531;SDS011;66872;63.142;14.482;2023-05-02T00:48:52;1.20;;;1.10;;
16531;SDS011;66872;63.142;14.482;2023-05-02T00:51:18;0.90;;;0.90;;
16531;SDS011;66872;63.142;14.482;2023-05-02T00:53:44;1.17;;;1.10;;
16531;SDS011;66872;63.142;14.482;2023-05-02T00:56:10;1.20;;;1.10;;
16531;SDS011;66872;63.142;14.482;2023-05-02T00:58:36;1.13;;;1.10;;
16531;SDS011;66872;63.142;14.482;2023-05-02T01:06:27;1.17;;;1.07;;
16531;SDS011;66872;63.142;14.482;2023-05-02T01:14:53;1.30;;;1.20;;
16531;SDS011;66872;63.142;14.482;2023-05-02T01:17:22;1.50;;;1.20;;
16531;SDS011;66872;63.142;14.482;2023-05-02T01:19:56;1.10;;;1.00;;
16531;SDS011;66872;63.142;14.482;2023-05-02T01:22:23;1.20;;;1.10;;
16531;SDS011;66872;63.142;14.482;2023-05-02T01:30:35;1.20;;;1.10;;
16531;SDS011;66872;63.142;14.482;2023-05-02T01:33:03;1.07;;;1.07;;
16531;SDS011;66872;63.142;14.482;2023-05-02T01:35:30;1.03;;;1.00;;
16531;SDS011;66872;63.142;14.482;2023-05-02T01:37:58;1.23;;;1.13;;
16531;SDS011;66872;63.142;14.482;2023-05-02T01:40:26;1.20;;;1.10;;
16531;SDS011;66872;63.142;14.482;2023-05-02T01:42:53;1.00;;;1.00;;
16531;SDS011;66872;63.142;14.482;2023-05-02T01:45:22;0.90;;;0.90;;
16531;SDS011;66872;63.142;14.482;2023-05-02T01:47:49;1.27;;;1.17;;
16531;SDS011;66872;63.142;14.482;2023-05-02T01:50:20;1.20;;;1.10;;
16531;SDS011;66872;63.142;14.482;2023-05-02T01:52:48;0.90;;;0.90;;
16531;SDS011;66872;63.142;14.482;2023-05-02T01:55:17;1.03;;;1.03;;
16531;SDS011;66872;63.142;14.482;2023-05-02T01:57:45;1.30;;;1.20;;
16531;SDS011;66872;63.142;14.482;2023-05-02T02:00:12;1.00;;;1.00;;
16531;SDS011;66872;63.142;14.482;2023-05-02T02:02:40;0.90;;;0.90;;
16531;SDS011;66872;63.142;14.482;2023-05-02T02:05:07;1.30;;;1.20;;
16531;SDS011;66872;63.142;14.482;2023-05-02T02:07:34;0.87;;;0.87;;
16531;SDS011;66872;63.142;14.482;2023-05-02T02:10:01;0.97;;;0.97;;
16531;SDS011;66872;63.142;14.482;2023-05-02T02:12:41;1.30;;;1.20;;
16531;SDS011;66872;63.142;14.482;2023-05-02T02:15:14;1.30;;;1.20;;
16531;SDS011;66872;63.142;14.482;2023-05-02T02:20:25;1.20;;;1.10;;
16531;SDS011;66872;63.142;14.482;2023-05-02T02:22:53;1.30;;;1.20;;
16531;SDS011;66872;63.142;14.482;2023-05-02T02:25:21;0.90;;;0.90;;
16531;SDS011;66872;63.142;14.482;2023-05-02T02:27:47;1.30;;;1.20;;
16531;SDS011;66872;63.142;14.482;2023-05-02T02:30:13;1.30;;;1.20;;
16531;SDS011;66872;63.142;14.482;2023-05-02T02:32:40;1.20;;;1.10;;
16531;SDS011;66872;63.142;14.482;2023-05-02T02:35:06;1.07;;;1.07;;
16531;SDS011;66872;63.142;14.482;2023-05-02T02:37:40;1.10;;;1.10;;
16531;SDS011;66872;63.142;14.482;2023-05-02T02:40:18;1.30;;;1.20;;
16531;SDS011;66872;63.142;14.482;2023-05-02T02:45:56;0.97;;;0.97;;
16531;SDS011;66872;63.142;14.482;2023-05-02T02:48:32;1.27;;;1.17;;
16531;SDS011;66872;63.142;14.482;2023-05-02T02:51:07;1.00;;;1.00;;
16531;SDS011;66872;63.142;14.482;2023-05-02T02:57:11;1.20;;;1.10;;
16531;SDS011;66872;63.142;14.482;2023-05-02T02:59:45;1.20;;;1.10;;
16531;SDS011;66872;63.142;14.482;2023-05-02T03:02:35;1.00;;;1.00;;
16531;SDS011;66872;63.142;14.482;2023-05-02T03:05:01;1.20;;;1.10;;
16531;SDS011;66872;63.142;14.482;2023-05-02T03:07:29;1.10;;;1.10;;
16531;SDS011;66872;63.142;14.482;2023-05-02T03:09:56;1.20;;;1.10;;
16531;SDS011;66872;63.142;14.482;2023-05-02T03:12:22;1.53;;;1.20;;
16531;SDS011;66872;63.142;14.482;2023-05-02T03:14:48;1.20;;;1.10;;
16531;SDS011;66872;63.142;14.482;2023-05-02T03:17:14;1.27;;;1.17;;
16531;SDS011;66872;63.142;14.482;2023-05-02T03:19:40;1.17;;;1.07;;
16531;SDS011;66872;63.142;14.482;2023-05-02T03:22:05;1.20;;;1.10;;
16531;SDS011;66872;63.142;14.482;2023-05-02T03:24:31;1.10;;;1.00;;
16531;SDS011;66872;63.142;14.482;2023-05-02T03:26:57;1.10;;;1.00;;
16531;SDS011;66872;63.142;14.482;2023-05-02T03:29:23;1.37;;;1.27;;
16531;SDS011;66872;63.142;14.482;2023-05-02T03:31:50;1.00;;;1.00;;
16531;SDS011;66872;63.142;14.482;2023-05-02T03:34:16;1.30;;;1.20;;
16531;SDS011;66872;63.142;14.482;2023-05-02T03:36:43;1.20;;;1.10;;
16531;SDS011;66872;63.142;14.482;2023-05-02T03:39:09;1.33;;;1.00;;
16531;SDS011;66872;63.142;14.482;2023-05-02T03:41:36;1.30;;;1.20;;
16531;SDS011;66872;63.142;14.482;2023-05-02T03:44:01;1.20;;;1.10;;
16531;SDS011;66872;63.142;14.482;2023-05-02T03:46:27;1.20;;;1.10;;
16531;SDS011;66872;63.142;14.482;2023-05-02T03:48:56;0.97;;;0.97;;
16531;SDS011;66872;63.142;14.482;2023-05-02T03:51:22;1.00;;;1.00;;
16531;SDS011;66872;63.142;14.482;2023-05-02T03:53:48;1.17;;;1.10;;
16531;SDS011;66872;63.142;14.482;2023-05-02T03:56:17;1.00;;;1.00;;
16531;SDS011;66872;63.142;14.482;2023-05-02T03:58:46;1.10;;;1.00;;
16531;SDS011;66872;63.142;14.482;2023-05-02T04:01:13;0.97;;;0.97;;
16531;SDS011;66872;63.142;14.482;2023-05-02T04:03:39;1.10;;;1.00;;
16531;SDS011;66872;63.142;14.482;2023-05-02T04:06:05;1.33;;;1.23;;
16531;SDS011;66872;63.142;14.482;2023-05-02T04:08:31;1.20;;;1.10;;
16531;SDS011;66872;63.142;14.482;2023-05-02T04:10:57;2.20;;;1.27;;
16531;SDS011;66872;63.142;14.482;2023-05-02T04:13:23;1.17;;;1.07;;
16531;SDS011;66872;63.142;14.482;2023-05-02T04:15:48;1.07;;;1.00;;
16531;SDS011;66872;63.142;14.482;2023-05-02T04:18:14;0.93;;;0.93;;
16531;SDS011;66872;63.142;14.482;2023-05-02T04:20:41;1.20;;;1.10;;
16531;SDS011;66872;63.142;14.482;2023-05-02T04:23:08;0.90;;;0.90;;
16531;SDS011;66872;63.142;14.482;2023-05-02T04:25:34;1.50;;;1.40;;
16531;SDS011;66872;63.142;14.482;2023-05-02T04:27:59;1.20;;;1.10;;
16531;SDS011;66872;63.142;14.482;2023-05-02T04:30:25;1.20;;;1.10;;
16531;SDS011;66872;63.142;14.482;2023-05-02T04:32:51;1.10;;;1.00;;
16531;SDS011;66872;63.142;14.482;2023-05-02T04:35:17;1.07;;;1.07;;
16531;SDS011;66872;63.142;14.482;2023-05-02T04:37:43;1.20;;;1.10;;
16531;SDS011;66872;63.142;14.482;2023-05-02T04:40:09;1.27;;;1.17;;
16531;SDS011;66872;63.142;14.482;2023-05-02T04:42:35;0.90;;;0.90;;
16531;SDS011;66872;63.142;14.482;2023-05-02T04:45:01;1.20;;;1.10;;
16531;SDS011;66872;63.142;14.482;2023-05-02T04:47:26;1.00;;;1.00;;
16531;SDS011;66872;63.142;14.482;2023-05-02T04:49:52;1.40;;;1.30;;
16531;SDS011;66872;63.142;14.482;2023-05-02T04:52:18;1.37;;;1.17;;
16531;SDS011;66872;63.142;14.482;2023-05-02T04:54:43;1.20;;;1.10;;
16531;SDS011;66872;63.142;14.482;2023-05-02T04:57:09;1.20;;;1.10;;
16531;SDS011;66872;63.142;14.482;2023-05-02T04:59:35;1.20;;;1.10;;
16531;SDS011;66872;63.142;14.482;2023-05-02T05:02:02;1.20;;;1.10;;
16531;SDS011;66872;63.142;14.482;2023-05-02T05:04:28;1.10;;;1.00;;
16531;SDS011;66872;63.142;14.482;2023-05-02T05:06:54;1.00;;;0.93;;
16531;SDS011;66872;63.142;14.482;2023-05-02T05:09:19;1.20;;;1.10;;
16531;SDS011;66872;63.142;14.482;2023-05-02T05:11:46;1.20;;;1.10;;
16531;SDS011;66872;63.142;14.482;2023-05-02T05:14:11;1.20;;;1.10;;
16531;SDS011;66872;63.142;14.482;2023-05-02T05:16:37;1.17;;;1.07;;
16531;SDS011;66872;63.142;14.482;2023-05-02T05:19:03;1.27;;;1.17;;
16531;SDS011;66872;63.142;14.482;2023-05-02T05:21:29;1.00;;;1.00;;
16531;SDS011;66872;63.142;14.482;2023-05-02T05:23:55;1.10;;;1.00;;
16531;SDS011;66872;63.142;14.482;2023-05-02T05:26:20;1.30;;;1.20;;
16531;SDS011;66872;63.142;14.482;2023-05-02T05:28:47;1.20;;;1.10;;
16531;SDS011;66872;63.142;14.482;2023-05-02T05:31:14;1.23;;;1.13;;
16531;SDS011;66872;63.142;14.482;2023-05-02T05:33:41;0.93;;;0.93;;
16531;SDS011;66872;63.142;14.482;2023-05-02T05:36:08;1.20;;;1.10;;
16531;SDS011;66872;63.142;14.482;2023-05-02T05:38:35;1.30;;;1.10;;
16531;SDS011;66872;63.142;14.482;2023-05-02T05:41:01;0.97;;;0.97;;
16531;SDS011;66872;63.142;14.482;2023-05-02T05:43:27;1.80;;;1.07;;
16531;SDS011;66872;63.142;14.482;2023-05-02T05:45:53;1.10;;;1.00;;
16531;SDS011;66872;63.142;14.482;2023-05-02T05:48:20;1.03;;;1.00;;
16531;SDS011;66872;63.142;14.482;2023-05-02T05:50:46;1.00;;;1.00;;
16531;SDS011;66872;63.142;14.482;2023-05-02T05:53:12;1.07;;;1.03;;
16531;SDS011;66872;63.142;14.482;2023-05-02T05:55:38;0.90;;;0.90;;
16531;SDS011;66872;63.142;14.482;2023-05-02T05:58:05;1.00;;;1.00;;
16531;SDS011;66872;63.142;14.482;2023-05-02T06:00:34;0.90;;;0.90;;
16531;SDS011;66872;63.142;14.482;2023-05-02T06:03:00;1.20;;;1.10;;
16531;SDS011;66872;63.142;14.482;2023-05-02T06:05:26;1.10;;;1.00;;
16531;SDS011;66872;63.142;14.482;2023-05-02T06:07:52;1.20;;;1.10;;
16531;SDS011;66872;63.142;14.482;2023-05-02T06:10:18;1.10;;;1.03;;
16531;SDS011;66872;63.142;14.482;2023-05-02T06:12:43;1.40;;;1.30;;
16531;SDS011;66872;63.142;14.482;2023-05-02T06:15:09;1.40;;;1.30;;
16531;SDS011;66872;63.142;14.482;2023-05-02T06:17:35;1.00;;;1.00;;
16531;SDS011;66872;63.142;14.482;2023-05-02T06:20:00;0.93;;;0.93;;
16531;SDS011;66872;63.142;14.482;2023-05-02T06:22:26;0.83;;;0.83;;
16531;SDS011;66872;63.142;14.482;2023-05-02T06:24:52;1.07;;;1.07;;
16531;SDS011;66872;63.142;14.482;2023-05-02T06:27:17;1.30;;;1.20;;
16531;SDS011;66872;63.142;14.482;2023-05-02T06:29:43;1.20;;;1.10;;
16531;SDS011;66872;63.142;14.482;2023-05-02T06:32:08;1.00;;;1.00;;
16531;SDS011;66872;63.142;14.482;2023-05-02T06:34:34;1.20;;;1.10;;
16531;SDS011;66872;63.142;14.482;2023-05-02T06:37:00;1.63;;;1.00;;
16531;SDS011;66872;63.142;14.482;2023-05-02T06:39:26;1.20;;;1.10;;
16531;SDS011;66872;63.142;14.482;2023-05-02T06:41:57;1.20;;;1.10;;
16531;SDS011;66872;63.142;14.482;2023-05-02T06:44:23;1.20;;;1.10;;
16531;SDS011;66872;63.142;14.482;2023-05-02T06:46:49;1.20;;;1.10;;
16531;SDS011;66872;63.142;14.482;2023-05-02T06:49:15;1.00;;;1.00;;
16531;SDS011;66872;63.142;14.482;2023-05-02T06:51:41;0.93;;;0.93;;
16531;SDS011;66872;63.142;14.482;2023-05-02T06:54:07;1.08;;;0.98;;
16531;SDS011;66872;63.142;14.482;2023-05-02T06:56:33;1.20;;;1.10;;
16531;SDS011;66872;63.142;14.482;2023-05-02T06:58:59;1.38;;;1.27;;
16531;SDS011;66872;63.142;14.482;2023-05-02T07:01:24;1.00;;;1.00;;
16531;SDS011;66872;63.142;14.482;2023-05-02T07:03:50;1.10;;;1.10;;
16531;SDS011;66872;63.142;14.482;2023-05-02T07:06:16;1.05;;;0.98;;
16531;SDS011;66872;63.142;14.482;2023-05-02T07:08:42;1.15;;;1.08;;
16531;SDS011;66872;63.142;14.482;2023-05-02T07:11:08;1.00;;;1.00;;
16531;SDS011;66872;63.142;14.482;2023-05-02T07:13:34;1.00;;;1.00;;
16531;SDS011;66872;63.142;14.482;2023-05-02T07:15:59;1.10;;;1.00;;
16531;SDS011;66872;63.142;14.482;2023-05-02T07:18:25;0.95;;;0.95;;
16531;SDS011;66872;63.142;14.482;2023-05-02T07:20:51;1.15;;;1.05;;
16531;SDS011;66872;63.142;14.482;2023-05-02T07:23:16;1.05;;;1.05;;
16531;SDS011;66872;63.142;14.482;2023-05-02T07:25:42;0.90;;;0.90;;
16531;SDS011;66872;63.142;14.482;2023-05-02T07:28:08;1.20;;;1.10;;
16531;SDS011;66872;63.142;14.482;2023-05-02T07:30:33;0.90;;;0.90;;
16531;SDS011;66872;63.142;14.482;2023-05-02T07:32:59;1.10;;;1.05;;
16531;SDS011;66872;63.142;14.482;2023-05-02T07:35:25;1.17;;;1.00;;
16531;SDS011;66872;63.142;14.482;2023-05-02T07:37:50;0.90;;;0.90;;
16531;SDS011;66872;63.142;14.482;2023-05-02T07:40:16;1.10;;;1.00;;
16531;SDS011;66872;63.142;14.482;2023-05-02T07:42:42;1.00;;;0.98;;
16531;SDS011;66872;63.142;14.482;2023-05-02T07:45:08;0.85;;;0.85;;
16531;SDS011;66872;63.142;14.482;2023-05-02T07:47:34;1.02;;;1.00;;
16531;SDS011;66872;63.142;14.482;2023-05-02T07:50:01;1.27;;;1.17;;
16531;SDS011;66872;63.142;14.482;2023-05-02T07:52:30;0.90;;;0.90;;
16531;SDS011;66872;63.142;14.482;2023-05-02T07:54:56;1.00;;;0.90;;
16531;SDS011;66872;63.142;14.482;2023-05-02T07:57:22;1.08;;;1.00;;
16531;SDS011;66872;63.142;14.482;2023-05-02T07:59:48;1.13;;;1.02;;
16531;SDS011;66872;63.142;14.482;2023-05-02T08:02:13;1.17;;;1.10;;
16531;SDS011;66872;63.142;14.482;2023-05-02T08:04:41;1.20;;;1.10;;
16531;SDS011;66872;63.142;14.482;2023-05-02T08:07:07;1.00;;;1.00;;
16531;SDS011;66872;63.142;14.482;2023-05-02T08:09:33;1.10;;;1.10;;
16531;SDS011;66872;63.142;14.482;2023-05-02T08:11:59;1.10;;;1.00;;
16531;SDS011;66872;63.142;14.482;2023-05-02T08:14:26;0.95;;;0.95;;
16531;SDS011;66872;63.142;14.482;2023-05-02T08:16:52;1.10;;;1.00;;
16531;SDS011;66872;63.142;14.482;2023-05-02T08:19:17;1.02;;;0.90;;
16531;SDS011;66872;63.142;14.482;2023-05-02T08:21:43;0.80;;;0.80;;
16531;SDS011;66872;63.142;14.482;2023-05-02T08:24:09;1.00;;;0.90;;
16531;SDS011;66872;63.142;14.482;2023-05-02T08:26:34;1.00;;;1.00;;
16531;SDS011;66872;63.142;14.482;2023-05-02T08:29:00;1.02;;;1.00;;
16531;SDS011;66872;63.142;14.482;2023-05-02T08:31:28;1.00;;;1.00;;
16531;SDS011;66872;63.142;14.482;2023-05-02T08:33:54;1.15;;;1.05;;
16531;SDS011;66872;63.142;14.482;2023-05-02T08:36:20;0.95;;;0.90;;
16531;SDS011;66872;63.142;14.482;2023-05-02T08:38:46;1.08;;;0.98;;
16531;SDS011;66872;63.142;14.482;2023-05-02T08:41:13;1.10;;;1.00;;
16531;SDS011;66872;63.142;14.482;2023-05-02T08:43:43;1.10;;;1.08;;
16531;SDS011;66872;63.142;14.482;2023-05-02T08:46:11;1.00;;;0.90;;
16531;SDS011;66872;63.142;14.482;2023-05-02T08:48:41;0.95;;;0.90;;
16531;SDS011;66872;63.142;14.482;2023-05-02T08:51:09;1.13;;;1.05;;
16531;SDS011;66872;63.142;14.482;2023-05-02T08:53:36;0.85;;;0.85;;
16531;SDS011;66872;63.142;14.482;2023-05-02T08:56:02;1.10;;;1.00;;
16531;SDS011;66872;63.142;14.482;2023-05-02T08:58:28;0.80;;;0.80;;
16531;SDS011;66872;63.142;14.482;2023-05-02T09:01:00;1.17;;;1.08;;
16531;SDS011;66872;63.142;14.482;2023-05-02T09:06:03;1.00;;;1.00;;
16531;SDS011;66872;63.142;14.482;2023-05-02T09:08:31;1.10;;;1.00;;
16531;SDS011;66872;63.142;14.482;2023-05-02T09:11:01;0.80;;;0.80;;
16531;SDS011;66872;63.142;14.482;2023-05-02T09:18:33;0.93;;;0.93;;
16531;SDS011;66872;63.142;14.482;2023-05-02T09:21:07;1.20;;;1.10;;
16531;SDS011;66872;63.142;14.482;2023-05-02T09:26:15;0.70;;;0.70;;
16531;SDS011;66872;63.142;14.482;2023-05-02T09:28:49;1.20;;;1.10;;
16531;SDS011;66872;63.142;14.482;2023-05-02T09:31:20;0.80;;;0.80;;
16531;SDS011;66872;63.142;14.482;2023-05-02T09:33:47;1.10;;;1.00;;
16531;SDS011;66872;63.142;14.482;2023-05-02T09:36:14;0.90;;;0.90;;
16531;SDS011;66872;63.142;14.482;2023-05-02T09:38:42;0.80;;;0.80;;
16531;SDS011;66872;63.142;14.482;2023-05-02T09:41:09;0.80;;;0.80;;
16531;SDS011;66872;63.142;14.482;2023-05-02T09:43:35;1.10;;;1.00;;
16531;SDS011;66872;63.142;14.482;2023-05-02T09:46:02;0.97;;;0.93;;
16531;SDS011;66872;63.142;14.482;2023-05-02T09:48:29;0.90;;;0.90;;
16531;SDS011;66872;63.142;14.482;2023-05-02T09:50:56;0.90;;;0.90;;
16531;SDS011;66872;63.142;14.482;2023-05-02T09:53:23;0.90;;;0.90;;
16531;SDS011;66872;63.142;14.482;2023-05-02T09:56:00;0.70;;;0.70;;
16531;SDS011;66872;63.142;14.482;2023-05-02T09:58:27;1.10;;;1.00;;
16531;SDS011;66872;63.142;14.482;2023-05-02T10:00:55;1.03;;;1.00;;
16531;SDS011;66872;63.142;14.482;2023-05-02T10:03:22;0.87;;;0.87;;
16531;SDS011;66872;63.142;14.482;2023-05-02T10:05:49;0.93;;;0.93;;
16531;SDS011;66872;63.142;14.482;2023-05-02T10:08:18;0.87;;;0.87;;
16531;SDS011;66872;63.142;14.482;2023-05-02T10:10:45;1.00;;;1.00;;
16531;SDS011;66872;63.142;14.482;2023-05-02T10:13:17;0.80;;;0.80;;
16531;SDS011;66872;63.142;14.482;2023-05-02T10:15:45;0.83;;;0.83;;
16531;SDS011;66872;63.142;14.482;2023-05-02T10:18:16;0.80;;;0.80;;
16531;SDS011;66872;63.142;14.482;2023-05-02T10:21:06;0.97;;;0.97;;
16531;SDS011;66872;63.142;14.482;2023-05-02T10:23:34;0.77;;;0.77;;
16531;SDS011;66872;63.142;14.482;2023-05-02T10:26:00;1.07;;;1.03;;
16531;SDS011;66872;63.142;14.482;2023-05-02T10:28:26;0.87;;;0.87;;
16531;SDS011;66872;63.142;14.482;2023-05-02T10:30:52;1.00;;;0.93;;
16531;SDS011;66872;63.142;14.482;2023-05-02T10:33:19;0.80;;;0.80;;
16531;SDS011;66872;63.142;14.482;2023-05-02T10:35:47;0.63;;;0.63;;
16531;SDS011;66872;63.142;14.482;2023-05-02T10:38:14;0.90;;;0.90;;
16531;SDS011;66872;63.142;14.482;2023-05-02T10:40:46;0.70;;;0.70;;
16531;SDS011;66872;63.142;14.482;2023-05-02T10:43:20;1.00;;;0.90;;
16531;SDS011;66872;63.142;14.482;2023-05-02T10:45:51;1.03;;;1.00;;
16531;SDS011;66872;63.142;14.482;2023-05-02T10:48:21;1.07;;;1.03;;
16531;SDS011;66872;63.142;14.482;2023-05-02T10:50:52;1.10;;;1.00;;
16531;SDS011;66872;63.142;14.482;2023-05-02T10:53:26;0.97;;;0.90;;
16531;SDS011;66872;63.142;14.482;2023-05-02T10:56:31;0.70;;;0.70;;
16531;SDS011;66872;63.142;14.482;2023-05-02T10:58:51;1.00;;;1.00;;
16531;SDS011;66872;63.142;14.482;2023-05-02T11:06:28;0.90;;;0.90;;
16531;SDS011;66872;63.142;14.482;2023-05-02T11:09:28;0.80;;;0.80;;
16531;SDS011;66872;63.142;14.482;2023-05-02T11:11:43;0.63;;;0.63;;
16531;SDS011;66872;63.142;14.482;2023-05-02T11:14:09;0.77;;;0.77;;
16531;SDS011;66872;63.142;14.482;2023-05-02T11:19:22;0.80;;;0.80;;
16531;SDS011;66872;63.142;14.482;2023-05-02T11:21:49;0.90;;;0.90;;
16531;SDS011;66872;63.142;14.482;2023-05-02T11:24:36;0.80;;;0.80;;
16531;SDS011;66872;63.142;14.482;2023-05-02T11:30:03;0.90;;;0.90;;
16531;SDS011;66872;63.142;14.482;2023-05-02T11:35:19;0.90;;;0.90;;
16531;SDS011;66872;63.142;14.482;2023-05-02T11:37:52;0.90;;;0.90;;
16531;SDS011;66872;63.142;14.482;2023-05-02T11:40:19;0.83;;;0.83;;
16531;SDS011;66872;63.142;14.482;2023-05-02T11:42:45;0.87;;;0.87;;
16531;SDS011;66872;63.142;14.482;2023-05-02T11:45:11;0.80;;;0.80;;
16531;SDS011;66872;63.142;14.482;2023-05-02T11:47:37;0.80;;;0.80;;
16531;SDS011;66872;63.142;14.482;2023-05-02T11:50:05;0.70;;;0.70;;
16531;SDS011;66872;63.142;14.482;2023-05-02T11:52:38;1.17;;;1.07;;
16531;SDS011;66872;63.142;14.482;2023-05-02T11:55:05;0.80;;;0.80;;
16531;SDS011;66872;63.142;14.482;2023-05-02T11:57:33;0.80;;;0.80;;
16531;SDS011;66872;63.142;14.482;2023-05-02T11:59:59;0.83;;;0.83;;
16531;SDS011;66872;63.142;14.482;2023-05-02T12:02:38;0.80;;;0.80;;
16531;SDS011;66872;63.142;14.482;2023-05-02T12:05:08;0.80;;;0.80;;
16531;SDS011;66872;63.142;14.482;2023-05-02T12:07:36;0.80;;;0.80;;
16531;SDS011;66872;63.142;14.482;2023-05-02T12:10:04;0.63;;;0.63;;
16531;SDS011;66872;63.142;14.482;2023-05-02T12:12:34;0.93;;;0.90;;
16531;SDS011;66872;63.142;14.482;2023-05-02T12:15:10;1.10;;;0.97;;
16531;SDS011;66872;63.142;14.482;2023-05-02T12:17:40;0.80;;;0.80;;
16531;SDS011;66872;63.142;14.482;2023-05-02T12:20:16;0.97;;;0.97;;
16531;SDS011;66872;63.142;14.482;2023-05-02T12:22:42;0.80;;;0.80;;
16531;SDS011;66872;63.142;14.482;2023-05-02T12:25:08;0.70;;;0.70;;
16531;SDS011;66872;63.142;14.482;2023-05-02T12:27:34;0.80;;;0.80;;
16531;SDS011;66872;63.142;14.482;2023-05-02T12:30:01;0.83;;;0.83;;
16531;SDS011;66872;63.142;14.482;2023-05-02T12:32:33;0.80;;;0.80;;
16531;SDS011;66872;63.142;14.482;2023-05-02T12:35:00;0.80;;;0.80;;
16531;SDS011;66872;63.142;14.482;2023-05-02T12:37:27;0.80;;;0.80;;
16531;SDS011;66872;63.142;14.482;2023-05-02T12:39:53;1.27;;;0.90;;
16531;SDS011;66872;63.142;14.482;2023-05-02T12:42:22;0.80;;;0.80;;
16531;SDS011;66872;63.142;14.482;2023-05-02T12:44:49;0.90;;;0.90;;
16531;SDS011;66872;63.142;14.482;2023-05-02T12:47:16;0.70;;;0.70;;
16531;SDS011;66872;63.142;14.482;2023-05-02T12:52:15;0.83;;;0.83;;
16531;SDS011;66872;63.142;14.482;2023-05-02T12:54:45;1.03;;;0.97;;
16531;SDS011;66872;63.142;14.482;2023-05-02T12:57:21;0.80;;;0.80;;
16531;SDS011;66872;63.142;14.482;2023-05-02T12:59:50;0.70;;;0.70;;
16531;SDS011;66872;63.142;14.482;2023-05-02T13:02:17;0.60;;;0.60;;
16531;SDS011;66872;63.142;14.482;2023-05-02T13:04:43;0.80;;;0.80;;
16531;SDS011;66872;63.142;14.482;2023-05-02T13:07:08;0.70;;;0.70;;
16531;SDS011;66872;63.142;14.482;2023-05-02T13:09:35;0.70;;;0.70;;
16531;SDS011;66872;63.142;14.482;2023-05-02T13:12:01;0.70;;;0.70;;
16531;SDS011;66872;63.142;14.482;2023-05-02T13:14:30;0.57;;;0.57;;
16531;SDS011;66872;63.142;14.482;2023-05-02T13:16:56;0.80;;;0.80;;
16531;SDS011;66872;63.142;14.482;2023-05-02T13:19:21;0.80;;;0.80;;
16531;SDS011;66872;63.142;14.482;2023-05-02T13:21:47;0.70;;;0.70;;
16531;SDS011;66872;63.142;14.482;2023-05-02T13:24:13;0.70;;;0.70;;
16531;SDS011;66872;63.142;14.482;2023-05-02T13:26:41;0.60;;;0.60;;
16531;SDS011;66872;63.142;14.482;2023-05-02T13:29:07;0.70;;;0.70;;
16531;SDS011;66872;63.142;14.482;2023-05-02T13:31:35;0.80;;;0.80;;
16531;SDS011;66872;63.142;14.482;2023-05-02T13:34:02;0.67;;;0.67;;
16531;SDS011;66872;63.142;14.482;2023-05-02T13:36:29;0.80;;;0.80;;
16531;SDS011;66872;63.142;14.482;2023-05-02T13:38:54;0.70;;;0.70;;
16531;SDS011;66872;63.142;14.482;2023-05-02T13:41:20;0.90;;;0.90;;
16531;SDS011;66872;63.142;14.482;2023-05-02T13:43:48;0.80;;;0.80;;
16531;SDS011;66872;63.142;14.482;2023-05-02T13:46:14;2.00;;;1.00;;
16531;SDS011;66872;63.142;14.482;2023-05-02T13:48:40;0.70;;;0.70;;
16531;SDS011;66872;63.142;14.482;2023-05-02T13:51:05;0.60;;;0.60;;
16531;SDS011;66872;63.142;14.482;2023-05-02T13:53:31;0.90;;;0.90;;
16531;SDS011;66872;63.142;14.482;2023-05-02T13:55:57;0.80;;;0.80;;
16531;SDS011;66872;63.142;14.482;2023-05-02T13:58:23;0.80;;;0.80;;
16531;SDS011;66872;63.142;14.482;2023-05-02T14:00:48;0.93;;;0.93;;
16531;SDS011;66872;63.142;14.482;2023-05-02T14:03:14;0.80;;;0.80;;
16531;SDS011;66872;63.142;14.482;2023-05-02T14:05:41;0.70;;;0.70;;
16531;SDS011;66872;63.142;14.482;2023-05-02T14:08:08;0.60;;;0.60;;
16531;SDS011;66872;63.142;14.482;2023-05-02T14:10:34;0.60;;;0.60;;
16531;SDS011;66872;63.142;14.482;2023-05-02T14:13:02;0.80;;;0.77;;
16531;SDS011;66872;63.142;14.482;2023-05-02T14:15:28;0.70;;;0.70;;
16531;SDS011;66872;63.142;14.482;2023-05-02T14:17:54;0.57;;;0.57;;
16531;SDS011;66872;63.142;14.482;2023-05-02T14:20:20;0.80;;;0.80;;
16531;SDS011;66872;63.142;14.482;2023-05-02T14:22:47;0.70;;;0.70;;
16531;SDS011;66872;63.142;14.482;2023-05-02T14:25:13;1.40;;;0.60;;
16531;SDS011;66872;63.142;14.482;2023-05-02T14:27:40;0.80;;;0.80;;
16531;SDS011;66872;63.142;14.482;2023-05-02T14:30:06;0.90;;;0.90;;
16531;SDS011;66872;63.142;14.482;2023-05-02T14:32:33;0.80;;;0.80;;
16531;SDS011;66872;63.142;14.482;2023-05-02T14:34:58;0.50;;;0.50;;
16531;SDS011;66872;63.142;14.482;2023-05-02T14:37:25;0.77;;;0.77;;
16531;SDS011;66872;63.142;14.482;2023-05-02T14:39:51;0.80;;;0.80;;
16531;SDS011;66872;63.142;14.482;2023-05-02T14:42:20;0.90;;;0.90;;
16531;SDS011;66872;63.142;14.482;2023-05-02T14:44:51;0.60;;;0.60;;
16531;SDS011;66872;63.142;14.482;2023-05-02T14:47:17;0.57;;;0.57;;
16531;SDS011;66872;63.142;14.482;2023-05-02T14:49:43;0.80;;;0.80;;
16531;SDS011;66872;63.142;14.482;2023-05-02T14:52:08;0.80;;;0.80;;
16531;SDS011;66872;63.142;14.482;2023-05-02T14:54:34;0.57;;;0.57;;
16531;SDS011;66872;63.142;14.482;2023-05-02T14:57:00;0.80;;;0.80;;
16531;SDS011;66872;63.142;14.482;2023-05-02T14:59:27;0.70;;;0.70;;
16531;SDS011;66872;63.142;14.482;2023-05-02T15:01:54;0.70;;;0.70;;
16531;SDS011;66872;63.142;14.482;2023-05-02T15:04:19;0.60;;;0.60;;
16531;SDS011;66872;63.142;14.482;2023-05-02T15:06:45;0.53;;;0.53;;
16531;SDS011;66872;63.142;14.482;2023-05-02T15:09:12;0.57;;;0.57;;
16531;SDS011;66872;63.142;14.482;2023-05-02T15:11:38;0.70;;;0.70;;
16531;SDS011;66872;63.142;14.482;2023-05-02T15:14:04;0.90;;;0.90;;
16531;SDS011;66872;63.142;14.482;2023-05-02T15:16:30;0.60;;;0.60;;
16531;SDS011;66872;63.142;14.482;2023-05-02T15:18:55;0.60;;;0.60;;
16531;SDS011;66872;63.142;14.482;2023-05-02T15:21:21;0.80;;;0.80;;
16531;SDS011;66872;63.142;14.482;2023-05-02T15:23:47;0.73;;;0.73;;
16531;SDS011;66872;63.142;14.482;2023-05-02T15:26:12;0.60;;;0.60;;